Richland, Texas
Current Conditions -  °F | °C
As of 8:53 PM on Wednesday 22 Oct 2014 (Local Time) from KCRS Reporting Station
Clear Clear  
Wind Chill: 68°   Ceiling: Unl
Heat Index: 68°   Visibility: 10mi
Dew Point: 57°   Wind: 6mph
Humidity: 68%   Direction: 90°E
Pressure: 30.11"   Gusts: NA
Location:  31.93°N, 96.43°W
Report Text: KCRS 230153Z AUTO 09005KT 10SM CLR 20/14 A3011 RMK AO2 SLP194 T02000139
Loading
Personal Weather Stations






























Interactive Weather Map
Tropical Storm Tracking
New forecast layout! Learn more

10-Day Weather Forecast

Advertisements
Track Severe Weather on mobile